createdAt,value
2018-07-20T00:00:59.099Z,1010.71
2018-07-20T00:01:59.146Z,1010.71
2018-07-20T00:02:59.081Z,1010.69
2018-07-20T00:03:59.099Z,1010.68
2018-07-20T00:04:59.108Z,1010.69
2018-07-20T00:05:59.201Z,1010.65
2018-07-20T00:06:59.101Z,1010.71
2018-07-20T00:07:59.809Z,1010.70
2018-07-20T00:08:59.119Z,1010.74
2018-07-20T00:09:59.097Z,1010.72
2018-07-20T00:10:59.109Z,1010.73
2018-07-20T00:11:59.098Z,1010.71
2018-07-20T00:12:59.141Z,1010.69
2018-07-20T00:13:59.162Z,1010.73
2018-07-20T00:14:59.183Z,1010.72
2018-07-20T00:15:59.157Z,1010.69
2018-07-20T00:16:59.148Z,1010.69
2018-07-20T00:17:59.120Z,1010.68
2018-07-20T00:18:59.210Z,1010.70
2018-07-20T00:19:59.192Z,1010.70
2018-07-20T00:20:59.157Z,1010.64
2018-07-20T00:21:59.201Z,1010.69
2018-07-20T00:22:59.137Z,1010.67
2018-07-20T00:23:59.179Z,1010.64
2018-07-20T00:24:59.162Z,1010.65
2018-07-20T00:25:59.167Z,1010.64
2018-07-20T00:26:59.189Z,1010.66
2018-07-20T00:27:59.167Z,1010.65
2018-07-20T00:28:59.154Z,1010.62
2018-07-20T00:29:59.215Z,1010.62
2018-07-20T00:30:59.186Z,1010.60
2018-07-20T00:31:59.176Z,1010.59
2018-07-20T00:32:59.205Z,1010.59
2018-07-20T00:33:59.186Z,1010.58
2018-07-20T00:34:59.213Z,1010.59
2018-07-20T00:35:59.203Z,1010.56
2018-07-20T00:36:59.230Z,1010.57
2018-07-20T00:37:59.186Z,1010.52
2018-07-20T00:38:59.216Z,1010.49
2018-07-20T00:39:59.234Z,1010.51
2018-07-20T00:40:59.205Z,1010.51
2018-07-20T00:41:59.239Z,1010.48
2018-07-20T00:42:59.192Z,1010.46
2018-07-20T00:43:59.348Z,1010.47
2018-07-20T00:44:59.206Z,1010.46
2018-07-20T00:45:59.210Z,1010.41
2018-07-20T00:46:59.230Z,1010.41
2018-07-20T00:47:59.296Z,1010.40
2018-07-20T00:48:59.222Z,1010.41
2018-07-20T00:49:59.223Z,1010.33
2018-07-20T00:50:59.225Z,1010.33
2018-07-20T00:51:59.240Z,1010.32
2018-07-20T00:52:59.225Z,1010.28
2018-07-20T00:53:59.308Z,1010.29
2018-07-20T00:54:59.277Z,1010.28
2018-07-20T00:55:59.235Z,1010.25
2018-07-20T00:56:59.246Z,1010.25
2018-07-20T00:57:59.284Z,1010.25
2018-07-20T00:58:59.282Z,1010.23
2018-07-20T00:59:59.249Z,1010.25
2018-07-20T01:00:59.286Z,1010.24
2018-07-20T01:01:59.823Z,1010.27
2018-07-20T01:02:59.265Z,1010.20
2018-07-20T01:03:59.279Z,1010.21
2018-07-20T01:04:59.275Z,1010.20
2018-07-20T01:05:59.286Z,1010.19
2018-07-20T01:06:59.268Z,1010.14
2018-07-20T01:07:59.279Z,1010.14
2018-07-20T01:08:59.276Z,1010.12
2018-07-20T01:09:59.274Z,1010.12
2018-07-20T01:10:59.306Z,1010.10
2018-07-20T01:11:59.287Z,1010.13
2018-07-20T01:12:59.298Z,1010.08
2018-07-20T01:13:59.298Z,1010.08
2018-07-20T01:14:59.302Z,1010.04
2018-07-20T01:15:59.302Z,1010.05
2018-07-20T01:16:59.354Z,1010.05
2018-07-20T01:17:59.314Z,1010.09
2018-07-20T01:18:59.306Z,1010.05
2018-07-20T01:19:59.337Z,1010.05
2018-07-20T01:20:59.338Z,1010.08
2018-07-20T01:21:59.334Z,1010.05
2018-07-20T01:22:59.337Z,1010.06
2018-07-20T01:23:59.360Z,1010.08
2018-07-20T01:24:59.326Z,1010.06
2018-07-20T01:25:59.343Z,1010.06
2018-07-20T01:26:59.365Z,1010.05
2018-07-20T01:27:59.358Z,1010.05
2018-07-20T01:28:59.354Z,1010.04
2018-07-20T01:29:59.350Z,1010.02
2018-07-20T01:30:59.367Z,1010.03
2018-07-20T01:31:59.356Z,1010.03
2018-07-20T01:32:59.380Z,1010.05
2018-07-20T01:33:59.349Z,1010.00
2018-07-20T01:34:59.395Z,1010.05
2018-07-20T01:35:59.383Z,1010.05
2018-07-20T01:36:59.392Z,1010.10
2018-07-20T01:37:59.425Z,1010.10
2018-07-20T01:38:59.365Z,1010.10
2018-07-20T01:39:59.374Z,1010.10
2018-07-20T01:40:59.381Z,1010.08
2018-07-20T01:41:59.417Z,1010.12
2018-07-20T01:43:00.339Z,1010.07
2018-07-20T01:43:59.400Z,1010.11
2018-07-20T01:44:59.411Z,1010.08
2018-07-20T01:45:59.407Z,1010.07
2018-07-20T01:46:59.411Z,1010.06
2018-07-20T01:47:59.387Z,1010.06
2018-07-20T01:48:59.403Z,1010.06
2018-07-20T01:49:59.402Z,1010.07
2018-07-20T01:50:59.437Z,1010.04
2018-07-20T01:51:59.400Z,1010.04
2018-07-20T01:52:59.435Z,1010.03
2018-07-20T01:53:59.458Z,1010.02
2018-07-20T01:54:59.428Z,1010.06
2018-07-20T01:55:59.519Z,1010.08
2018-07-20T01:56:59.446Z,1010.02
2018-07-20T01:57:59.461Z,1010.05
2018-07-20T01:58:59.453Z,1010.00
2018-07-20T01:59:59.467Z,1010.03
2018-07-20T02:00:59.457Z,1010.04
2018-07-20T02:01:59.479Z,1010.07
2018-07-20T02:02:59.457Z,1010.07
2018-07-20T02:03:59.453Z,1010.04
2018-07-20T02:04:59.455Z,1010.04
2018-07-20T02:05:59.462Z,1010.06
2018-07-20T02:06:59.457Z,1010.06
2018-07-20T02:07:59.456Z,1010.05
2018-07-20T02:08:59.527Z,1010.06
2018-07-20T02:09:59.461Z,1010.04
2018-07-20T02:10:59.463Z,1010.07
2018-07-20T02:11:59.485Z,1010.04
2018-07-20T02:12:59.485Z,1010.05
2018-07-20T02:13:59.467Z,1010.01
2018-07-20T02:14:59.469Z,1010.02
2018-07-20T02:15:59.471Z,1010.01
2018-07-20T02:16:59.476Z,1010.01
2018-07-20T02:17:59.476Z,1010.00
2018-07-20T02:18:59.478Z,1010.04
2018-07-20T02:19:59.504Z,1009.99
2018-07-20T02:20:59.524Z,1010.02
2018-07-20T02:21:59.587Z,1009.98
2018-07-20T02:22:59.541Z,1009.99
2018-07-20T02:23:59.523Z,1009.98
2018-07-20T02:24:59.504Z,1009.99
2018-07-20T02:25:59.500Z,1009.97
2018-07-20T02:26:59.519Z,1009.95
2018-07-20T02:27:59.552Z,1009.89
2018-07-20T02:28:59.509Z,1009.90
2018-07-20T02:29:59.509Z,1009.89
2018-07-20T02:30:59.511Z,1009.91
2018-07-20T02:31:59.520Z,1009.88
2018-07-20T02:32:59.520Z,1009.88
2018-07-20T02:33:59.529Z,1009.87
2018-07-20T02:34:59.549Z,1009.79
2018-07-20T02:35:59.533Z,1009.82
2018-07-20T02:36:59.709Z,1009.85
2018-07-20T02:37:59.533Z,1009.85
2018-07-20T02:38:59.541Z,1009.81
2018-07-20T02:39:59.558Z,1009.79
2018-07-20T02:41:01.461Z,1009.82
2018-07-20T02:41:59.620Z,1009.74
2018-07-20T02:42:59.545Z,1009.76
2018-07-20T02:43:59.548Z,1009.75
2018-07-20T02:44:59.557Z,1009.72
2018-07-20T02:45:59.549Z,1009.72
2018-07-20T02:46:59.573Z,1009.74
2018-07-20T02:47:59.566Z,1009.73
2018-07-20T02:48:59.568Z,1009.75
2018-07-20T02:49:59.642Z,1009.75
2018-07-20T02:51:00.362Z,1009.75
2018-07-20T02:51:59.595Z,1009.79
2018-07-20T02:52:59.591Z,1009.72
2018-07-20T02:53:59.602Z,1009.76
2018-07-20T02:54:59.577Z,1009.73
2018-07-20T02:55:59.590Z,1009.75
2018-07-20T02:56:59.642Z,1009.75
2018-07-20T02:57:59.596Z,1009.69
2018-07-20T02:58:59.632Z,1009.70
2018-07-20T02:59:59.595Z,1009.63
2018-07-20T03:00:59.629Z,1009.70
2018-07-20T03:01:59.622Z,1009.66
2018-07-20T03:02:59.593Z,1009.68
2018-07-20T03:03:59.605Z,1009.65
2018-07-20T03:04:59.600Z,1009.64
2018-07-20T03:05:59.632Z,1009.65
2018-07-20T03:06:59.621Z,1009.65
2018-07-20T03:07:59.673Z,1009.61
2018-07-20T03:08:59.774Z,1009.64
2018-07-20T03:09:59.649Z,1009.64
2018-07-20T03:10:59.625Z,1009.63
2018-07-20T03:11:59.658Z,1009.65
2018-07-20T03:12:59.630Z,1009.64
2018-07-20T03:13:59.640Z,1009.63
2018-07-20T03:14:59.645Z,1009.62
2018-07-20T03:15:59.693Z,1009.64
2018-07-20T03:16:59.669Z,1009.62
2018-07-20T03:17:59.639Z,1009.62
2018-07-20T03:18:59.646Z,1009.64
2018-07-20T03:19:59.678Z,1009.62
2018-07-20T03:20:59.692Z,1009.60
2018-07-20T03:21:59.646Z,1009.66
2018-07-20T03:22:59.658Z,1009.63
2018-07-20T03:23:59.659Z,1009.62
2018-07-20T03:24:59.670Z,1009.62
2018-07-20T03:25:59.707Z,1009.55
2018-07-20T03:26:59.665Z,1009.57
2018-07-20T03:27:59.670Z,1009.58
2018-07-20T03:28:59.679Z,1009.56
2018-07-20T03:29:59.691Z,1009.60
2018-07-20T03:30:59.786Z,1009.56
2018-07-20T03:31:59.676Z,1009.57
2018-07-20T03:32:59.789Z,1009.56
2018-07-20T03:33:59.718Z,1009.56
2018-07-20T03:34:59.690Z,1009.57
2018-07-20T03:35:59.689Z,1009.57
2018-07-20T03:36:59.692Z,1009.59
2018-07-20T03:37:59.730Z,1009.57
2018-07-20T03:38:59.695Z,1009.55
2018-07-20T03:39:59.726Z,1009.53
2018-07-20T03:40:59.731Z,1009.51
2018-07-20T03:41:59.725Z,1009.56
2018-07-20T03:42:59.713Z,1009.53
2018-07-20T03:43:59.847Z,1009.56
2018-07-20T03:44:59.744Z,1009.57
2018-07-20T03:45:59.723Z,1009.55
2018-07-20T03:46:59.724Z,1009.56
2018-07-20T03:47:59.709Z,1009.56
2018-07-20T03:48:59.816Z,1009.55
2018-07-20T03:49:59.734Z,1009.56
2018-07-20T03:50:59.783Z,1009.55
2018-07-20T03:52:01.465Z,1009.51
2018-07-20T03:52:59.791Z,1009.49
2018-07-20T03:54:00.391Z,1009.51
2018-07-20T03:54:59.774Z,1009.52
2018-07-20T03:55:59.768Z,1009.51
2018-07-20T03:56:59.797Z,1009.53
2018-07-20T03:57:59.747Z,1009.50
2018-07-20T03:58:59.759Z,1009.49
2018-07-20T03:59:59.764Z,1009.47
2018-07-20T04:01:08.747Z,1009.47
2018-07-20T04:02:53.245Z,1009.45
2018-07-20T04:03:54.784Z,1009.41
2018-07-20T04:04:53.350Z,1009.45
2018-07-20T04:05:53.216Z,1009.46
2018-07-20T04:06:53.163Z,1009.48
2018-07-20T04:07:53.185Z,1009.45
2018-07-20T04:08:53.171Z,1009.48
2018-07-20T04:09:53.226Z,1009.44
2018-07-20T04:10:53.181Z,1009.43
2018-07-20T04:11:53.186Z,1009.40
2018-07-20T04:12:53.193Z,1009.42
2018-07-20T04:13:53.338Z,1009.43
2018-07-20T04:14:53.226Z,1009.39
2018-07-20T04:15:53.193Z,1009.43
2018-07-20T04:16:53.207Z,1009.42
2018-07-20T04:17:53.216Z,1009.46
2018-07-20T04:18:53.216Z,1009.41
2018-07-20T04:19:53.224Z,1009.42
2018-07-20T04:20:53.200Z,1009.48
2018-07-20T04:21:53.247Z,1009.47
2018-07-20T04:22:53.231Z,1009.47
2018-07-20T04:23:53.220Z,1009.47
2018-07-20T04:24:53.233Z,1009.49
2018-07-20T04:25:53.279Z,1009.49
2018-07-20T04:26:53.255Z,1009.45
2018-07-20T04:27:53.250Z,1009.45
2018-07-20T04:28:53.241Z,1009.42
2018-07-20T04:29:53.265Z,1009.45
2018-07-20T04:30:53.233Z,1009.44
2018-07-20T04:31:53.250Z,1009.42
2018-07-20T04:32:53.243Z,1009.42
2018-07-20T04:33:53.264Z,1009.48
2018-07-20T04:34:53.295Z,1009.44
2018-07-20T04:35:53.249Z,1009.39
2018-07-20T04:36:53.267Z,1009.41
2018-07-20T04:37:53.302Z,1009.40
2018-07-20T04:38:53.295Z,1009.36
2018-07-20T04:39:53.306Z,1009.37
2018-07-20T04:40:53.300Z,1009.40
2018-07-20T04:41:53.268Z,1009.37
2018-07-20T04:42:53.254Z,1009.39
2018-07-20T04:43:53.323Z,1009.43
2018-07-20T04:44:53.267Z,1009.44
2018-07-20T04:45:53.271Z,1009.47
2018-07-20T04:46:53.306Z,1009.44
2018-07-20T04:47:53.331Z,1009.49
2018-07-20T04:48:53.300Z,1009.49
2018-07-20T04:49:53.357Z,1009.48
2018-07-20T04:50:53.321Z,1009.53
2018-07-20T04:51:53.330Z,1009.52
2018-07-20T04:52:53.349Z,1009.53
2018-07-20T04:53:53.319Z,1009.54
2018-07-20T04:54:53.337Z,1009.56
2018-07-20T04:55:53.298Z,1009.54
2018-07-20T04:56:53.301Z,1009.56
2018-07-20T04:57:53.335Z,1009.58
2018-07-20T04:58:53.378Z,1009.56
2018-07-20T04:59:53.366Z,1009.54
2018-07-20T05:00:53.314Z,1009.57
2018-07-20T05:01:53.324Z,1009.56
2018-07-20T05:02:53.338Z,1009.57
2018-07-20T05:03:53.318Z,1009.54
2018-07-20T05:04:53.321Z,1009.59
2018-07-20T05:05:53.409Z,1009.62
2018-07-20T05:06:53.329Z,1009.59
2018-07-20T05:07:53.339Z,1009.62
2018-07-20T05:08:53.326Z,1009.61
2018-07-20T05:09:53.341Z,1009.61
2018-07-20T05:10:53.337Z,1009.61
2018-07-20T05:11:53.361Z,1009.59
2018-07-20T05:12:53.363Z,1009.60
2018-07-20T05:13:53.353Z,1009.61
2018-07-20T05:14:53.366Z,1009.58
2018-07-20T05:15:53.369Z,1009.59
2018-07-20T05:16:53.376Z,1009.53
2018-07-20T05:17:53.363Z,1009.49
2018-07-20T05:18:53.360Z,1009.50
2018-07-20T05:19:53.377Z,1009.48
2018-07-20T05:20:53.512Z,1009.50
2018-07-20T05:21:53.372Z,1009.49
2018-07-20T05:22:53.379Z,1009.48
2018-07-20T05:23:53.391Z,1009.46
2018-07-20T05:24:53.401Z,1009.50
2018-07-20T05:25:53.384Z,1009.47
2018-07-20T05:26:53.428Z,1009.49
2018-07-20T05:27:53.414Z,1009.50
2018-07-20T05:28:53.392Z,1009.50
2018-07-20T05:29:53.388Z,1009.48
2018-07-20T05:30:53.409Z,1009.52
2018-07-20T05:31:53.395Z,1009.53
2018-07-20T05:32:53.408Z,1009.57
2018-07-20T05:33:53.417Z,1009.56
2018-07-20T05:34:53.423Z,1009.58
2018-07-20T05:35:53.413Z,1009.57
2018-07-20T05:36:53.409Z,1009.58
2018-07-20T05:37:53.428Z,1009.61
2018-07-20T05:38:53.441Z,1009.55
2018-07-20T05:39:53.430Z,1009.63
2018-07-20T05:40:53.427Z,1009.57
2018-07-20T05:41:53.433Z,1009.63
2018-07-20T05:42:53.501Z,1009.65
2018-07-20T05:43:53.508Z,1009.65
2018-07-20T05:44:53.465Z,1009.68
2018-07-20T05:45:53.503Z,1009.65
2018-07-20T05:46:53.459Z,1009.68
2018-07-20T05:47:53.478Z,1009.68
2018-07-20T05:48:53.491Z,1009.71
2018-07-20T05:49:53.475Z,1009.72
2018-07-20T05:50:53.475Z,1009.72
2018-07-20T05:51:53.472Z,1009.77
2018-07-20T05:52:53.522Z,1009.74
2018-07-20T05:53:53.473Z,1009.74
2018-07-20T05:54:53.484Z,1009.74
2018-07-20T05:55:53.487Z,1009.77
2018-07-20T05:56:53.487Z,1009.78
2018-07-20T05:57:53.491Z,1009.80
2018-07-20T05:58:53.496Z,1009.81
2018-07-20T05:59:53.507Z,1009.80
2018-07-20T06:00:53.531Z,1009.81
2018-07-20T06:01:53.528Z,1009.83
2018-07-20T06:02:53.513Z,1009.86
2018-07-20T06:03:53.529Z,1009.87
2018-07-20T06:04:53.527Z,1009.85
2018-07-20T06:05:53.548Z,1009.89
2018-07-20T06:06:53.561Z,1009.85
2018-07-20T06:07:53.546Z,1009.86
2018-07-20T06:08:53.578Z,1009.86
2018-07-20T06:09:53.606Z,1009.86
2018-07-20T06:10:53.580Z,1009.89
2018-07-20T06:11:53.633Z,1009.89
2018-07-20T06:12:53.589Z,1009.80
2018-07-20T06:13:53.612Z,1009.82
2018-07-20T06:14:53.600Z,1009.82
2018-07-20T06:15:53.594Z,1009.83
2018-07-20T06:16:53.595Z,1009.85
2018-07-20T06:17:53.638Z,1009.87
2018-07-20T06:18:53.630Z,1009.89
2018-07-20T06:19:53.636Z,1009.93
2018-07-20T06:20:53.661Z,1009.91
2018-07-20T06:21:53.629Z,1009.91
2018-07-20T06:22:53.647Z,1009.95
2018-07-20T06:23:53.749Z,1009.97
2018-07-20T06:24:53.681Z,1009.98
2018-07-20T06:25:53.656Z,1009.98
2018-07-20T06:26:53.692Z,1009.97
2018-07-20T06:27:53.675Z,1010.02
2018-07-20T06:28:53.676Z,1010.04
2018-07-20T06:29:53.689Z,1010.06
2018-07-20T06:30:53.710Z,1010.12
2018-07-20T06:31:53.735Z,1010.21
2018-07-20T06:32:53.742Z,1010.21
2018-07-20T06:33:53.718Z,1010.17
2018-07-20T06:34:53.828Z,1010.09
2018-07-20T06:35:53.779Z,1010.05
2018-07-20T06:36:53.752Z,1010.08
2018-07-20T06:37:53.755Z,1010.09
2018-07-20T06:38:53.769Z,1010.05
2018-07-20T06:39:53.767Z,1010.14
2018-07-20T06:40:53.813Z,1010.15
2018-07-20T06:41:53.783Z,1010.10
2018-07-20T06:42:53.804Z,1010.18
2018-07-20T06:43:53.827Z,1010.19
2018-07-20T06:44:53.816Z,1010.18
2018-07-20T06:45:53.846Z,1010.13
2018-07-20T06:46:53.832Z,1010.11
2018-07-20T06:47:53.869Z,1010.17
2018-07-20T06:48:53.854Z,1010.23
2018-07-20T06:49:53.963Z,1010.18
2018-07-20T06:50:53.867Z,1010.16
2018-07-20T06:51:53.906Z,1010.13
2018-07-20T06:52:53.893Z,1010.17
2018-07-20T06:53:53.929Z,1010.18
2018-07-20T06:54:53.888Z,1010.20
2018-07-20T06:55:54.036Z,1010.29
2018-07-20T06:56:53.925Z,1010.36
2018-07-20T06:57:53.946Z,1010.33
2018-07-20T06:58:53.949Z,1010.37
2018-07-20T06:59:53.942Z,1010.34
2018-07-20T07:00:53.977Z,1010.34
2018-07-20T07:01:53.987Z,1010.37
2018-07-20T07:02:53.958Z,1010.40
2018-07-20T07:03:53.977Z,1010.35
2018-07-20T07:04:53.982Z,1010.41
2018-07-20T07:05:53.997Z,1010.36
2018-07-20T07:06:54.020Z,1010.33
2018-07-20T07:07:54.004Z,1010.38
2018-07-20T07:08:54.027Z,1010.41
2018-07-20T07:09:54.012Z,1010.38
2018-07-20T07:10:54.024Z,1010.40
2018-07-20T07:11:54.060Z,1010.42
2018-07-20T07:12:54.120Z,1010.46
2018-07-20T07:13:55.782Z,1010.49
2018-07-20T07:14:54.086Z,1010.54
2018-07-20T07:15:54.080Z,1010.57
2018-07-20T07:16:54.090Z,1010.62
2018-07-20T07:17:54.131Z,1010.65
2018-07-20T07:18:54.104Z,1010.66
2018-07-20T07:19:54.126Z,1010.66
2018-07-20T07:20:54.194Z,1010.68
2018-07-20T07:21:54.157Z,1010.73
2018-07-20T07:22:54.369Z,1010.77
2018-07-20T07:23:54.157Z,1010.80
2018-07-20T07:24:54.218Z,1010.86
2018-07-20T07:25:54.233Z,1010.89
2018-07-20T07:26:54.222Z,1010.96
2018-07-20T07:27:54.217Z,1010.95
2018-07-20T07:28:54.215Z,1010.93
2018-07-20T07:29:54.225Z,1010.96
2018-07-20T07:30:54.274Z,1011.03
2018-07-20T07:31:54.260Z,1011.08
2018-07-20T07:32:54.320Z,1011.03
2018-07-20T07:33:54.271Z,1011.20
2018-07-20T07:34:54.295Z,1011.36
2018-07-20T07:35:54.376Z,1011.50
2018-07-20T07:36:54.333Z,1011.90
2018-07-20T07:37:54.461Z,1012.43
2018-07-20T07:38:54.339Z,1013.26
2018-07-20T07:39:54.375Z,1013.89
2018-07-20T07:40:54.365Z,1014.61
2018-07-20T07:41:54.399Z,1014.92
2018-07-20T07:42:54.398Z,1014.64
2018-07-20T07:43:54.441Z,1014.60
2018-07-20T07:44:54.436Z,1015.42
2018-07-20T07:45:54.457Z,1016.11
2018-07-20T07:46:54.446Z,1017.17
2018-07-20T07:47:54.465Z,1017.85
2018-07-20T07:48:54.486Z,1017.05
2018-07-20T07:49:54.508Z,1017.29
2018-07-20T07:50:54.505Z,1016.96
2018-07-20T07:51:54.531Z,1017.39
2018-07-20T07:52:54.540Z,1018.77
2018-07-20T07:53:54.548Z,1018.64
2018-07-20T07:54:54.593Z,1019.54
2018-07-20T07:55:54.568Z,1020.23
2018-07-20T07:56:54.600Z,1021.48
2018-07-20T07:57:54.593Z,1023.33
2018-07-20T07:58:54.612Z,1024.60
2018-07-20T07:59:54.618Z,1025.19
2018-07-20T08:00:54.689Z,1024.86
2018-07-20T08:01:54.669Z,1024.86
2018-07-20T08:02:54.690Z,1025.75
2018-07-20T08:03:54.691Z,1027.38
2018-07-20T08:04:54.733Z,1029.52
2018-07-20T08:05:56.341Z,1029.82
2018-07-20T08:06:55.354Z,1029.24
2018-07-20T08:07:54.757Z,1028.67
2018-07-20T08:08:54.764Z,1029.45
2018-07-20T08:09:54.887Z,1030.28
2018-07-20T08:10:54.846Z,1031.04
2018-07-20T08:11:54.898Z,1030.29
2018-07-20T08:12:54.827Z,1030.43
2018-07-20T08:13:54.849Z,1030.67
2018-07-20T08:14:54.854Z,1029.33
2018-07-20T08:15:54.963Z,1029.96
2018-07-20T08:16:54.883Z,1030.67
2018-07-20T08:17:54.903Z,1029.19
2018-07-20T08:18:54.921Z,1029.68
2018-07-20T08:19:54.995Z,1031.29
2018-07-20T08:20:54.949Z,1032.38
2018-07-20T08:21:54.969Z,1029.77
2018-07-20T08:22:55.104Z,1028.25
2018-07-20T08:23:55.022Z,1028.83
2018-07-20T08:24:55.062Z,1030.07
2018-07-20T08:25:55.050Z,1030.24
2018-07-20T08:26:55.064Z,1030.08
2018-07-20T08:27:55.861Z,1028.68
2018-07-20T08:28:55.098Z,1027.04
2018-07-20T08:29:55.102Z,1027.78
2018-07-20T08:30:55.152Z,1028.21
2018-07-20T08:31:55.178Z,1028.59
2018-07-20T08:32:55.177Z,1029.52
2018-07-20T08:33:55.211Z,1029.93
2018-07-20T08:34:55.223Z,1028.59
2018-07-20T08:35:55.366Z,1027.57
2018-07-20T08:36:55.267Z,1028.75
2018-07-20T08:37:55.302Z,1027.62
2018-07-20T08:38:55.323Z,1027.24
2018-07-20T08:39:55.313Z,1029.74
2018-07-20T08:40:55.667Z,1029.51
2018-07-20T08:41:55.364Z,1028.55
2018-07-20T08:42:55.396Z,1029.82
2018-07-20T08:43:55.381Z,1029.38
2018-07-20T08:44:55.431Z,1028.42
2018-07-20T08:45:56.292Z,1026.46
2018-07-20T08:46:55.418Z,1028.33
2018-07-20T08:47:55.465Z,1028.82
2018-07-20T08:48:56.300Z,1027.27
2018-07-20T08:49:55.508Z,1026.45
2018-07-20T08:50:55.508Z,1025.98
2018-07-20T08:51:55.548Z,1027.05
2018-07-20T08:52:55.552Z,1026.11
2018-07-20T08:53:55.566Z,1025.23
2018-07-20T08:54:55.638Z,1024.98
2018-07-20T08:55:55.680Z,1023.52
2018-07-20T08:56:55.792Z,1022.12
2018-07-20T08:57:55.616Z,1021.86
2018-07-20T08:58:55.733Z,1020.74
2018-07-20T08:59:55.727Z,1019.59
2018-07-20T09:00:55.733Z,1019.00
2018-07-20T09:01:55.697Z,1018.56
2018-07-20T09:02:55.718Z,1017.40
2018-07-20T09:03:55.757Z,1016.50
2018-07-20T09:04:55.767Z,1015.39
2018-07-20T09:05:56.296Z,1014.48
2018-07-20T09:06:56.789Z,1013.63
2018-07-20T09:07:55.815Z,1013.04
2018-07-20T09:08:55.825Z,1012.71
2018-07-20T09:09:55.870Z,1012.36
2018-07-20T09:10:56.792Z,1012.08
2018-07-20T09:11:55.898Z,1011.74
2018-07-20T09:12:55.898Z,1011.69
2018-07-20T09:13:56.078Z,1011.69
2018-07-20T09:14:55.974Z,1011.64
2018-07-20T09:15:56.000Z,1011.52
2018-07-20T09:16:56.005Z,1011.49
2018-07-20T09:17:55.995Z,1011.39
2018-07-20T09:18:56.022Z,1011.34
2018-07-20T09:19:56.059Z,1011.29
2018-07-20T09:20:56.146Z,1011.23
2018-07-20T09:21:56.904Z,1011.13
2018-07-20T09:22:56.167Z,1010.89
2018-07-20T09:23:56.165Z,1010.79
2018-07-20T09:24:56.195Z,1010.81
2018-07-20T09:25:56.172Z,1010.77
2018-07-20T09:26:56.703Z,1010.72
2018-07-20T09:27:56.365Z,1010.65
2018-07-20T09:28:56.291Z,1010.63
2018-07-20T09:42:24.143Z,1010.36
2018-07-20T09:43:17.437Z,1010.47
2018-07-20T09:44:19.581Z,1010.61
2018-07-20T09:45:17.179Z,1010.56
2018-07-20T09:46:17.662Z,1010.51
2018-07-20T09:47:18.589Z,1010.45
2018-07-20T09:48:17.392Z,1010.31
2018-07-20T09:49:17.320Z,1010.30
2018-07-20T09:50:17.361Z,1010.34
2018-07-20T09:51:17.327Z,1010.30
2018-07-20T09:52:17.404Z,1010.30
2018-07-20T09:53:17.372Z,1010.26
2018-07-20T09:54:17.374Z,1010.25
2018-07-20T09:55:17.486Z,1010.23
2018-07-20T09:56:17.459Z,1010.21
2018-07-20T09:57:17.502Z,1010.15
2018-07-20T09:58:17.547Z,1010.19
2018-07-20T09:59:17.566Z,1010.17
2018-07-20T10:00:17.489Z,1010.18
2018-07-20T10:01:17.566Z,1010.13
2018-07-20T10:02:17.606Z,1010.10
2018-07-20T10:03:17.704Z,1010.15
2018-07-20T10:04:18.605Z,1010.11
2018-07-20T10:05:17.640Z,1010.02
2018-07-20T10:06:17.640Z,1009.84
2018-07-20T10:07:17.699Z,1009.96
2018-07-20T10:08:17.755Z,1009.97
2018-07-20T10:09:17.765Z,1009.98
2018-07-20T10:10:17.774Z,1009.96
2018-07-20T10:11:17.800Z,1010.00
2018-07-20T10:12:17.847Z,1009.96
2018-07-20T10:13:17.854Z,1009.92
2018-07-20T10:14:17.996Z,1009.95
2018-07-20T10:15:17.883Z,1009.99
2018-07-20T10:16:17.909Z,1009.97
2018-07-20T10:17:17.911Z,1009.96
2018-07-20T10:18:17.969Z,1009.93
2018-07-20T10:19:17.927Z,1009.87
2018-07-20T10:20:17.993Z,1009.83
2018-07-20T10:21:19.069Z,1009.85
2018-07-20T10:22:17.989Z,1009.77
2018-07-20T10:23:18.017Z,1009.75
2018-07-20T10:24:18.202Z,1009.71
2018-07-20T10:25:18.135Z,1009.69
2018-07-20T10:26:18.083Z,1009.65
2018-07-20T10:27:20.750Z,1009.65
2018-07-20T10:28:18.191Z,1009.57
2018-07-20T10:29:18.204Z,1009.52
2018-07-20T10:30:18.236Z,1009.42
2018-07-20T10:31:18.299Z,1009.43
2018-07-20T10:32:18.259Z,1009.44
2018-07-20T10:33:18.307Z,1009.46
2018-07-20T10:34:21.406Z,1009.54
2018-07-20T10:35:39.834Z,1009.53
2018-07-20T10:36:19.778Z,1009.54
2018-07-20T10:37:18.840Z,1009.51
2018-07-20T10:38:19.628Z,1009.50
2018-07-20T10:39:23.630Z,1009.53
2018-07-20T10:40:20.319Z,1009.51
2018-07-20T10:41:22.777Z,1009.61
2018-07-20T10:42:18.811Z,1009.60
2018-07-20T10:43:18.467Z,1009.60
2018-07-20T10:44:18.572Z,1009.60
2018-07-20T10:45:18.625Z,1009.55
2018-07-20T10:46:18.674Z,1009.50
2018-07-20T10:47:19.149Z,1009.41
2018-07-20T10:48:18.581Z,1009.33
2018-07-20T10:49:18.609Z,1009.27
2018-07-20T10:50:18.622Z,1009.19
2018-07-20T10:51:18.628Z,1009.10
2018-07-20T10:52:18.691Z,1009.08
2018-07-20T10:53:18.931Z,1008.96
2018-07-20T10:54:18.703Z,1008.98
2018-07-20T10:55:18.761Z,1009.01
2018-07-20T10:56:18.757Z,1008.93
2018-07-20T10:57:18.783Z,1008.88
2018-07-20T10:58:21.067Z,1008.85
2018-07-20T10:59:18.788Z,1008.83
2018-07-20T11:00:18.808Z,1008.82
2018-07-20T11:01:18.852Z,1008.80
2018-07-20T11:02:18.862Z,1008.76
2018-07-20T11:03:19.632Z,1008.79
2018-07-20T11:04:18.898Z,1008.78
2018-07-20T11:05:18.890Z,1008.76
2018-07-20T11:06:19.156Z,1008.82
2018-07-20T11:07:18.950Z,1008.84
2018-07-20T11:08:18.972Z,1008.86
2018-07-20T11:09:18.949Z,1008.80
2018-07-20T11:10:19.050Z,1008.87
2018-07-20T11:11:19.798Z,1008.86
2018-07-20T11:12:19.016Z,1008.85
2018-07-20T11:13:19.070Z,1008.88
2018-07-20T11:14:19.067Z,1008.88
2018-07-20T11:15:20.154Z,1008.85
2018-07-20T11:16:19.094Z,1008.80
2018-07-20T11:17:19.107Z,1008.80
2018-07-20T11:18:19.086Z,1008.75
2018-07-20T11:19:19.123Z,1008.76
2018-07-20T11:20:19.183Z,1008.79
2018-07-20T11:21:19.158Z,1008.81
2018-07-20T11:22:19.168Z,1008.77
2018-07-20T11:23:19.179Z,1008.74
2018-07-20T11:24:19.288Z,1008.73
2018-07-20T11:25:20.151Z,1008.72
2018-07-20T11:26:20.737Z,1008.76
2018-07-20T11:27:19.229Z,1008.74
2018-07-20T11:28:19.356Z,1008.74
2018-07-20T11:29:19.349Z,1008.75
2018-07-20T11:30:19.305Z,1008.71
2018-07-20T11:31:19.300Z,1008.68
2018-07-20T11:32:19.328Z,1008.65
2018-07-20T11:33:19.325Z,1008.71
2018-07-20T11:34:19.341Z,1008.61
2018-07-20T11:35:19.367Z,1008.60
2018-07-20T11:36:19.336Z,1008.54
2018-07-20T11:37:19.395Z,1008.55
2018-07-20T11:38:19.390Z,1008.56
2018-07-20T11:39:19.418Z,1008.52
2018-07-20T11:40:20.155Z,1008.49
2018-07-20T11:41:19.541Z,1008.47
2018-07-20T11:42:20.429Z,1008.46
2018-07-20T11:43:23.384Z,1008.45
2018-07-20T11:44:22.497Z,1008.46
2018-07-20T11:45:20.154Z,1008.40
2018-07-20T11:46:20.157Z,1008.38
2018-07-20T11:47:20.826Z,1008.35
2018-07-20T11:48:41.050Z,1008.40
2018-07-20T11:49:19.680Z,1008.48
2018-07-20T11:50:19.583Z,1008.48
2018-07-20T11:51:19.509Z,1008.49
2018-07-20T11:52:19.580Z,1008.43
2018-07-20T11:53:19.569Z,1008.43
2018-07-20T11:54:19.565Z,1008.43
2018-07-20T11:55:19.589Z,1008.43
2018-07-20T11:56:19.568Z,1008.40
2018-07-20T11:57:19.645Z,1008.40
2018-07-20T11:58:19.688Z,1008.34
2018-07-20T11:59:19.629Z,1008.31
2018-07-20T12:00:19.659Z,1008.22
2018-07-20T12:02:52.695Z,1008.27
2018-07-20T12:03:52.142Z,1008.29
2018-07-20T12:04:52.160Z,1008.26
2018-07-20T12:05:53.061Z,1008.27
2018-07-20T12:06:52.220Z,1008.28
2018-07-20T12:07:52.206Z,1008.26
2018-07-20T12:08:52.186Z,1008.23
2018-07-20T12:09:58.978Z,1008.25
2018-07-20T12:10:52.463Z,1008.21
2018-07-20T12:11:52.505Z,1008.24
2018-07-20T12:12:52.246Z,1008.20
2018-07-20T12:13:52.272Z,1008.19
2018-07-20T12:14:52.274Z,1008.15
2018-07-20T12:15:52.406Z,1008.12
2018-07-20T12:16:52.273Z,1008.06
2018-07-20T12:17:53.833Z,1008.08
2018-07-20T12:18:52.317Z,1008.04
2018-07-20T12:19:52.331Z,1008.04
2018-07-20T12:20:52.339Z,1008.04